createdAt,value
2022-10-11T00:00:50.408Z,15.5
2022-10-11T00:02:49.896Z,16.5
2022-10-11T00:04:50.473Z,15.2
2022-10-11T00:06:49.949Z,15.2
2022-10-11T00:08:50.044Z,17.4
2022-10-11T00:10:50.235Z,18.3
2022-10-11T00:12:50.420Z,18.3
2022-10-11T00:14:50.436Z,17.8
2022-10-11T00:16:50.065Z,17.8
2022-10-11T00:18:50.226Z,15.6
2022-10-11T00:20:50.281Z,19.8
2022-10-11T00:22:50.397Z,17.9
2022-10-11T00:24:50.580Z,17.9
2022-10-11T00:26:50.006Z,16.3
2022-10-11T00:28:50.203Z,19.8
2022-10-11T00:30:50.058Z,16.9
2022-10-11T00:32:50.444Z,15.8
2022-10-11T00:34:50.267Z,15.8
2022-10-11T00:36:49.915Z,17.4
2022-10-11T00:38:50.230Z,15.9
2022-10-11T00:40:50.574Z,15.5
2022-10-11T00:42:49.785Z,16.1
2022-10-11T00:44:50.240Z,16.1
2022-10-11T00:46:51.778Z,14.4
2022-10-11T00:48:50.040Z,15.8
2022-10-11T00:50:50.195Z,13.6
2022-10-11T00:52:50.253Z,12.8
2022-10-11T00:54:49.617Z,17.9
2022-10-11T00:56:50.266Z,17.9
2022-10-11T00:58:50.190Z,16.8
2022-10-11T01:00:50.122Z,13.8
2022-10-11T01:02:50.547Z,16.3
2022-10-11T01:05:01.150Z,16.3
2022-10-11T01:06:50.083Z,14.1
2022-10-11T01:08:50.281Z,17.6
2022-10-11T01:10:50.482Z,13.5
2022-10-11T01:12:49.579Z,15.7
2022-10-11T01:14:49.752Z,15.7
2022-10-11T01:16:50.233Z,17.5
2022-10-11T01:18:50.146Z,13.8
2022-10-11T01:20:50.288Z,16.5
2022-10-11T01:22:49.672Z,17.7
2022-10-11T01:24:49.672Z,17.7
2022-10-11T01:26:50.044Z,13.5
2022-10-11T01:28:50.311Z,19.1
2022-10-11T01:30:49.701Z,16.9
2022-10-11T01:32:49.673Z,16.9
2022-10-11T01:34:50.270Z,16.8
2022-10-11T01:36:49.886Z,16.8
2022-10-11T01:38:49.828Z,15.0
2022-10-11T01:40:50.041Z,15.0
2022-10-11T01:42:49.574Z,18.6
2022-10-11T01:44:49.553Z,20.8
2022-10-11T01:46:50.079Z,20.7
2022-10-11T01:48:50.236Z,22.9
2022-10-11T01:50:50.164Z,20.7
2022-10-11T01:52:50.156Z,20.7
2022-10-11T01:55:08.455Z,17.3
2022-10-11T01:56:50.149Z,18.8
2022-10-11T01:58:50.370Z,19.4
2022-10-11T02:00:50.386Z,19.4
2022-10-11T02:02:50.425Z,17.2
2022-10-11T02:04:49.898Z,17.6
2022-10-11T02:06:49.625Z,18.3
2022-10-11T02:08:50.150Z,16.5
2022-10-11T02:10:50.150Z,19.2
2022-10-11T02:12:50.076Z,19.2
2022-10-11T02:14:50.223Z,18.8
2022-10-11T02:16:49.644Z,20.1
2022-10-11T02:18:49.720Z,15.0
2022-10-11T02:20:49.739Z,15.0
2022-10-11T02:22:49.786Z,15.0
2022-10-11T02:24:49.565Z,16.3
2022-10-11T02:26:49.915Z,19.4
2022-10-11T02:28:49.997Z,17.2
2022-10-11T02:30:50.436Z,16.5
2022-10-11T02:32:49.715Z,16.5
2022-10-11T02:34:50.395Z,16.9
2022-10-11T02:36:49.931Z,14.6
2022-10-11T02:38:50.115Z,15.9
2022-10-11T02:40:50.326Z,15.9
2022-10-11T02:42:50.483Z,16.4
2022-10-11T02:44:49.796Z,14.6
2022-10-11T02:46:50.299Z,18.7
2022-10-11T02:48:50.161Z,14.0
2022-10-11T02:50:49.548Z,14.0
2022-10-11T02:52:49.712Z,15.7
2022-10-11T02:54:50.544Z,15.7
2022-10-11T02:56:49.894Z,14.6
2022-10-11T02:58:49.947Z,15.2
2022-10-11T03:00:49.838Z,15.2
2022-10-11T03:02:50.124Z,16.6
2022-10-11T03:04:49.752Z,14.5
2022-10-11T03:06:50.082Z,17.9
2022-10-11T03:08:50.381Z,17.9
2022-10-11T03:10:50.485Z,19.9
2022-10-11T03:12:50.441Z,16.0
2022-10-11T03:14:49.618Z,15.9
2022-10-11T03:16:51.516Z,15.9
2022-10-11T03:18:49.580Z,15.9
2022-10-11T03:20:49.687Z,16.9
2022-10-11T03:22:49.814Z,14.3
2022-10-11T03:24:49.840Z,17.4
2022-10-11T03:26:50.348Z,13.8
2022-10-11T03:28:50.357Z,13.8
2022-10-11T03:30:49.708Z,19.1
2022-10-11T03:32:49.764Z,17.2
2022-10-11T03:34:50.394Z,17.2
2022-10-11T03:36:49.779Z,16.2
2022-10-11T03:38:49.830Z,16.2
2022-10-11T03:40:50.025Z,16.5
2022-10-11T03:42:49.978Z,16.4
2022-10-11T03:44:50.052Z,19.0
2022-10-11T03:46:50.471Z,17.2
2022-10-11T03:48:49.589Z,17.2
2022-10-11T03:50:49.754Z,16.8
2022-10-11T03:52:50.119Z,19.6
2022-10-11T03:54:50.191Z,16.2
2022-10-11T03:56:50.541Z,16.2
2022-10-11T03:58:49.762Z,16.9
2022-10-11T04:00:49.734Z,16.4
2022-10-11T04:02:49.666Z,16.1
2022-10-11T04:04:50.340Z,17.3
2022-10-11T04:06:49.771Z,17.3
2022-10-11T04:08:49.791Z,17.7
2022-10-11T04:10:50.186Z,17.0
2022-10-11T04:12:50.270Z,17.2
2022-10-11T04:14:50.441Z,17.2
2022-10-11T04:16:49.904Z,15.9
2022-10-11T04:18:50.029Z,15.9
2022-10-11T04:20:50.223Z,17.2
2022-10-11T04:22:50.431Z,16.7
2022-10-11T04:24:49.562Z,15.3
2022-10-11T04:26:49.891Z,15.3
2022-10-11T04:28:50.082Z,13.9
2022-10-11T04:30:50.345Z,13.9
2022-10-11T04:32:50.289Z,15.1
2022-10-11T04:34:49.900Z,15.1
2022-10-11T04:36:50.560Z,17.6
2022-10-11T04:38:50.556Z,16.1
2022-10-11T04:40:49.702Z,14.5
2022-10-11T04:42:49.915Z,17.6
2022-10-11T04:44:49.967Z,17.6
2022-10-11T04:46:50.395Z,15.9
2022-10-11T04:48:50.382Z,16.7
2022-10-11T04:50:50.290Z,15.1
2022-10-11T04:52:50.454Z,18.0
2022-10-11T04:54:49.618Z,15.2
2022-10-11T04:56:50.039Z,15.2
2022-10-11T04:58:50.033Z,18.2
2022-10-11T05:00:50.222Z,16.3
2022-10-11T05:02:50.271Z,16.3
2022-10-11T05:04:50.006Z,17.0
2022-10-11T05:06:50.495Z,19.6
2022-10-11T05:08:49.582Z,17.7
2022-10-11T05:10:49.753Z,19.3
2022-10-11T05:12:49.912Z,19.3
2022-10-11T05:14:50.051Z,18.2
2022-10-11T05:16:50.543Z,19.3
2022-10-11T05:18:49.704Z,20.4
2022-10-11T05:20:49.847Z,21.0
2022-10-11T05:22:49.925Z,19.6
2022-10-11T05:24:49.766Z,19.6
2022-10-11T05:26:50.026Z,21.9
2022-10-11T05:28:50.266Z,23.6
2022-10-11T05:30:49.955Z,23.6
2022-10-11T05:32:49.899Z,22.4
2022-10-11T05:34:50.506Z,22.4
2022-10-11T05:36:50.160Z,22.7
2022-10-11T05:38:50.310Z,31.4
2022-10-11T05:40:50.382Z,31.4
2022-10-11T05:42:49.636Z,24.3
2022-10-11T05:44:49.805Z,25.2
2022-10-11T05:46:50.172Z,22.5
2022-10-11T05:48:50.238Z,23.7
2022-10-11T05:50:50.404Z,24.9
2022-10-11T05:52:50.474Z,24.9
2022-10-11T05:54:50.461Z,23.6
2022-10-11T05:56:49.635Z,23.7
2022-10-11T05:58:49.765Z,22.1
2022-10-11T06:00:50.149Z,23.2
2022-10-11T06:02:49.620Z,23.2
2022-10-11T06:04:50.487Z,20.0
2022-10-11T06:06:50.213Z,20.2
2022-10-11T06:08:50.289Z,20.2
2022-10-11T06:10:50.248Z,20.4
2022-10-11T06:12:50.385Z,20.4
2022-10-11T06:14:49.607Z,21.5
2022-10-11T06:16:50.096Z,20.9
2022-10-11T06:18:50.272Z,21.6
2022-10-11T06:20:50.507Z,18.7
2022-10-11T06:22:49.723Z,18.7
2022-10-11T06:24:50.016Z,18.9
2022-10-11T06:26:50.575Z,17.9
2022-10-11T06:28:49.778Z,17.9
2022-10-11T06:30:49.643Z,15.0
2022-10-11T06:32:49.826Z,18.5
2022-10-11T06:34:50.482Z,18.9
2022-10-11T06:36:49.863Z,18.1
2022-10-11T06:38:49.990Z,16.9
2022-10-11T06:40:49.868Z,16.9
2022-10-11T06:42:49.815Z,19.2
2022-10-11T06:44:50.148Z,19.4
2022-10-11T06:46:49.885Z,17.7
2022-10-11T06:48:49.737Z,14.4
2022-10-11T06:50:59.389Z,18.3
2022-10-11T06:52:50.123Z,18.3
2022-10-11T06:54:50.182Z,15.8
2022-10-11T06:56:50.612Z,16.4
2022-10-11T06:58:49.683Z,15.8
2022-10-11T07:00:49.732Z,15.8
2022-10-11T07:02:50.141Z,16.1
2022-10-11T07:04:49.563Z,15.4
2022-10-11T07:06:49.896Z,15.4
2022-10-11T07:08:50.094Z,15.4
2022-10-11T07:10:50.208Z,15.7
2022-10-11T07:12:50.210Z,15.6
2022-10-11T07:14:50.437Z,14.1
2022-10-11T07:16:50.141Z,14.2
2022-10-11T07:18:50.090Z,14.5
2022-10-11T07:20:50.157Z,14.5
2022-10-11T07:22:50.189Z,15.3
2022-10-11T07:24:50.083Z,18.1
2022-10-11T07:26:49.932Z,14.0
2022-10-11T07:28:50.170Z,17.9
2022-10-11T07:30:49.550Z,17.9
2022-10-11T07:32:50.540Z,12.9
2022-10-11T07:34:50.154Z,14.4
2022-10-11T07:36:49.618Z,138.7
2022-10-11T07:38:49.670Z,138.7
2022-10-11T07:40:49.948Z,14.3
2022-10-11T07:42:49.966Z,20.5
2022-10-11T07:44:50.159Z,18.2
2022-10-11T07:46:49.631Z,15.9
2022-10-11T07:48:49.690Z,15.9
2022-10-11T07:50:49.742Z,14.2
2022-10-11T07:52:50.126Z,13.5
2022-10-11T07:54:50.202Z,11.3
2022-10-11T07:56:50.454Z,13.4
2022-10-11T07:58:49.780Z,13.4
2022-10-11T08:00:49.907Z,12.6
2022-10-11T08:02:50.125Z,13.4
2022-10-11T08:04:49.924Z,12.6
2022-10-11T08:06:53.293Z,12.6
2022-10-11T08:08:49.612Z,12.8
2022-10-11T08:10:50.051Z,11.9
2022-10-11T08:12:49.909Z,12.6
2022-10-11T08:14:49.881Z,12.6
2022-10-11T08:16:50.292Z,15.9
2022-10-11T08:18:50.474Z,12.1
2022-10-11T08:20:49.742Z,11.0
2022-10-11T08:22:49.954Z,9.5
2022-10-11T08:24:50.230Z,9.5
2022-10-11T08:26:50.468Z,8.6
2022-10-11T08:28:49.862Z,8.6
2022-10-11T08:30:49.586Z,8.5
2022-10-11T08:32:50.579Z,8.1
2022-10-11T08:34:49.859Z,7.9
2022-10-11T08:36:50.454Z,7.9
2022-10-11T08:38:49.690Z,8.4
2022-10-11T08:40:49.765Z,9.9
2022-10-11T08:42:49.879Z,10.8
2022-10-11T08:45:09.877Z,8.6
2022-10-11T08:46:50.331Z,8.6
2022-10-11T08:48:50.376Z,9.6
2022-10-11T08:50:49.597Z,10.3
2022-10-11T08:52:50.508Z,11.9
2022-10-11T08:54:50.166Z,11.9
2022-10-11T08:56:49.606Z,7.5
2022-10-11T08:58:49.603Z,12.8
2022-10-11T09:00:49.806Z,10.2
2022-10-11T09:03:07.347Z,11.6
2022-10-11T09:04:50.235Z,11.6
2022-10-11T09:06:49.662Z,11.5
2022-10-11T09:08:49.858Z,12.8
2022-10-11T09:10:49.859Z,10.9
2022-10-11T09:12:49.831Z,10.5
2022-10-11T09:14:49.964Z,10.5
2022-10-11T09:16:50.462Z,11.7
2022-10-11T09:18:50.539Z,10.2
2022-10-11T09:20:50.475Z,9.2
2022-10-11T09:22:50.396Z,6.2
2022-10-11T09:24:50.412Z,6.2
2022-10-11T09:26:49.879Z,14.1
2022-10-11T09:28:50.068Z,15.4
2022-10-11T09:30:49.749Z,15.7
2022-10-11T09:32:49.926Z,7.3
2022-10-11T09:34:49.699Z,7.3
2022-10-11T09:36:50.262Z,10.2
2022-10-11T09:38:50.481Z,8.5
2022-10-11T09:40:50.508Z,9.4
2022-10-11T09:42:49.711Z,10.6
2022-10-11T09:44:49.870Z,10.6
2022-10-11T09:46:50.411Z,8.5
2022-10-11T09:48:50.567Z,7.5
2022-10-11T09:50:49.613Z,10.6
2022-10-11T09:52:49.796Z,10.6
2022-10-11T09:54:50.065Z,12.7
2022-10-11T09:56:49.657Z,7.3
2022-10-11T09:58:49.869Z,13.5
2022-10-11T10:00:50.161Z,9.5
2022-10-11T10:02:50.201Z,9.5
2022-10-11T10:04:49.867Z,11.4
2022-10-11T10:06:50.394Z,13.8
2022-10-11T10:08:50.451Z,9.1
2022-10-11T10:10:50.464Z,9.3
2022-10-11T10:12:49.663Z,9.3
2022-10-11T10:14:49.735Z,10.2
2022-10-11T10:16:50.197Z,7.0
2022-10-11T10:18:50.147Z,9.8
2022-10-11T10:20:50.383Z,7.6
2022-10-11T10:22:49.549Z,7.6
2022-10-11T10:24:50.383Z,7.6
2022-10-11T10:26:49.605Z,7.8
2022-10-11T10:28:49.750Z,10.6
2022-10-11T10:30:49.733Z,10.6
2022-10-11T10:32:49.806Z,10.0
2022-10-11T10:34:50.425Z,10.0
2022-10-11T10:36:49.639Z,6.7
2022-10-11T10:38:52.111Z,9.1
2022-10-11T10:40:49.618Z,9.1
2022-10-11T10:42:49.697Z,8.3
2022-10-11T10:44:49.683Z,7.0
2022-10-11T10:46:50.061Z,8.5
2022-10-11T10:49:19.016Z,9.6
2022-10-11T10:50:50.125Z,9.6
2022-10-11T10:52:50.208Z,7.4
2022-10-11T10:54:50.285Z,6.3
2022-10-11T10:56:49.820Z,8.6
2022-10-11T10:58:50.216Z,7.9
2022-10-11T11:00:50.515Z,7.9
2022-10-11T11:02:50.554Z,9.4
2022-10-11T11:04:49.698Z,8.9
2022-10-11T11:06:50.553Z,8.8
2022-10-11T11:08:49.683Z,8.8
2022-10-11T11:10:49.735Z,7.1
2022-10-11T11:12:49.959Z,7.5
2022-10-11T11:14:50.064Z,9.2
2022-10-11T11:16:50.451Z,9.3
2022-10-11T11:18:50.516Z,51.8
2022-10-11T11:20:50.470Z,51.8
2022-10-11T11:22:50.552Z,8.8
2022-10-11T11:24:49.571Z,7.3
2022-10-11T11:26:50.093Z,7.2
2022-10-11T11:28:50.196Z,8.1
2022-10-11T11:30:49.778Z,8.1
2022-10-11T11:32:49.714Z,9.1
2022-10-11T11:34:50.246Z,8.9
2022-10-11T11:36:49.657Z,8.9
2022-10-11T11:38:49.734Z,7.8
2022-10-11T11:40:49.737Z,9.1
2022-10-11T11:42:49.847Z,7.3
2022-10-11T11:44:49.763Z,8.9
2022-10-11T11:46:50.057Z,8.9
2022-10-11T11:48:50.118Z,7.0
2022-10-11T11:50:50.097Z,7.9
2022-10-11T11:52:50.217Z,8.5
2022-10-11T11:54:50.299Z,9.5
2022-10-11T11:56:49.584Z,8.6
2022-10-11T11:58:49.794Z,8.6
2022-10-11T12:00:50.052Z,9.0
2022-10-11T12:02:50.146Z,12.4
2022-10-11T12:04:49.867Z,9.8
2022-10-11T12:07:11.371Z,9.8
2022-10-11T12:08:49.619Z,8.2
2022-10-11T12:10:49.663Z,7.9
2022-10-11T12:12:49.774Z,7.5
2022-10-11T12:14:49.785Z,7.5
2022-10-11T12:16:50.036Z,8.6
2022-10-11T12:18:50.293Z,8.6
2022-10-11T12:20:50.214Z,11.5
2022-10-11T12:22:50.315Z,9.8
2022-10-11T12:24:50.517Z,7.1
2022-10-11T12:26:49.981Z,7.1
2022-10-11T12:28:50.198Z,6.7
2022-10-11T12:30:49.807Z,9.9
2022-10-11T12:32:49.712Z,6.7
2022-10-11T12:34:50.365Z,9.5
2022-10-11T12:36:49.655Z,7.5
2022-10-11T12:38:49.678Z,7.5
2022-10-11T12:40:49.600Z,6.7
2022-10-11T12:42:49.638Z,8.3
2022-10-11T12:44:49.606Z,8.7
2022-10-11T12:46:50.081Z,8.7
2022-10-11T12:48:50.312Z,8.6
2022-10-11T12:50:50.346Z,8.8
2022-10-11T12:52:50.374Z,7.8
2022-10-11T12:54:50.341Z,7.2
2022-10-11T12:56:49.591Z,7.2
2022-10-11T12:58:49.711Z,6.9
2022-10-11T13:00:50.069Z,7.4
2022-10-11T13:02:50.556Z,7.3
2022-10-11T13:04:50.413Z,7.4
2022-10-11T13:06:50.081Z,7.4
2022-10-11T13:08:50.219Z,9.7
2022-10-11T13:10:50.139Z,6.2
2022-10-11T13:12:50.248Z,6.2
2022-10-11T13:14:50.443Z,12.4
2022-10-11T13:16:49.873Z,7.3
2022-10-11T13:18:49.943Z,6.9
2022-10-11T13:20:50.008Z,8.0
2022-10-11T13:22:50.100Z,8.0
2022-10-11T13:24:50.271Z,6.9
2022-10-11T13:26:49.610Z,6.9
2022-10-11T13:28:49.880Z,7.0
2022-10-11T13:30:50.252Z,7.6
2022-10-11T13:32:50.316Z,9.5
2022-10-11T13:34:50.230Z,9.5
2022-10-11T13:36:49.890Z,7.5
2022-10-11T13:38:50.021Z,5.6
2022-10-11T13:40:51.092Z,11.0
2022-10-11T13:42:50.284Z,7.1
2022-10-11T13:44:50.371Z,7.1
2022-10-11T13:46:49.643Z,8.2
2022-10-11T13:48:49.683Z,6.3
2022-10-11T13:50:49.800Z,9.2
2022-10-11T13:52:49.895Z,9.2
2022-10-11T13:54:50.051Z,8.7
2022-10-11T13:56:49.855Z,7.3
2022-10-11T13:58:49.997Z,5.9
2022-10-11T14:00:50.009Z,5.0
2022-10-11T14:02:49.932Z,5.0
2022-10-11T14:04:50.543Z,6.3
2022-10-11T14:06:49.931Z,11.7
2022-10-11T14:08:49.869Z,5.2
2022-10-11T14:10:52.902Z,5.9
2022-10-11T14:12:50.417Z,4.6
2022-10-11T14:14:50.463Z,4.6
2022-10-11T14:16:50.007Z,7.4
2022-10-11T14:18:50.346Z,6.0
2022-10-11T14:20:50.384Z,10.6
2022-10-11T14:22:50.541Z,10.6
2022-10-11T14:24:49.566Z,9.3
2022-10-11T14:26:50.078Z,9.1
2022-10-11T14:28:50.030Z,9.1
2022-10-11T14:30:50.606Z,4.8
2022-10-11T14:32:49.939Z,4.8
2022-10-11T14:34:50.506Z,7.2
2022-10-11T14:36:49.931Z,8.3
2022-10-11T14:38:50.069Z,6.0
2022-10-11T14:40:50.021Z,9.2
2022-10-11T14:42:49.972Z,9.2
2022-10-11T14:44:50.033Z,8.3
2022-10-11T14:46:50.394Z,6.0
2022-10-11T14:48:55.320Z,7.0
2022-10-11T14:50:50.070Z,7.0
2022-10-11T14:52:50.069Z,7.0
2022-10-11T14:54:50.178Z,8.5
2022-10-11T14:56:49.770Z,7.0
2022-10-11T14:58:49.778Z,7.4
2022-10-11T15:00:49.673Z,6.6
2022-10-11T15:02:49.863Z,6.6
2022-10-11T15:04:49.603Z,7.2
2022-10-11T15:06:50.010Z,7.6
2022-10-11T15:08:50.164Z,7.3
2022-10-11T15:10:50.258Z,5.9
2022-10-11T15:12:50.265Z,5.9
2022-10-11T15:14:50.526Z,11.1
2022-10-11T15:16:49.873Z,8.0
2022-10-11T15:18:49.866Z,6.9
2022-10-11T15:20:49.889Z,6.9
2022-10-11T15:22:50.015Z,6.1
2022-10-11T15:24:51.728Z,8.6
2022-10-11T15:26:50.278Z,8.6
2022-10-11T15:28:50.114Z,9.6
2022-10-11T15:30:49.735Z,9.6
2022-10-11T15:32:49.963Z,8.2
2022-10-11T15:34:49.679Z,9.9
2022-10-11T15:36:50.179Z,8.1
2022-10-11T15:38:50.111Z,8.1
2022-10-11T15:40:50.306Z,9.2
2022-10-11T15:42:50.403Z,9.5
2022-10-11T15:44:50.495Z,8.1
2022-10-11T15:46:50.124Z,7.2
2022-10-11T15:48:50.350Z,7.2
2022-10-11T15:50:50.428Z,10.5
2022-10-11T15:52:49.559Z,9.7
2022-10-11T15:54:49.747Z,9.1
2022-10-11T15:56:50.092Z,8.1
2022-10-11T15:58:50.056Z,8.1
2022-10-11T16:00:50.284Z,7.9
2022-10-11T16:02:50.280Z,11.8
2022-10-11T16:04:50.118Z,6.5
2022-10-11T16:06:50.340Z,8.0
2022-10-11T16:08:49.574Z,8.0
2022-10-11T16:10:50.507Z,8.0
2022-10-11T16:12:49.674Z,9.9
2022-10-11T16:14:50.028Z,7.0
2022-10-11T16:16:50.373Z,7.0
2022-10-11T16:18:50.318Z,7.9
2022-10-11T16:20:50.438Z,5.8
2022-10-11T16:22:49.620Z,5.8
2022-10-11T16:24:49.663Z,8.3
2022-10-11T16:26:50.167Z,8.3
2022-10-11T16:28:50.336Z,8.5
2022-10-11T16:30:50.020Z,8.7
2022-10-11T16:32:50.246Z,8.7
2022-10-11T16:34:49.716Z,9.1
2022-10-11T16:36:50.030Z,9.1
2022-10-11T16:38:50.147Z,10.5
2022-10-11T16:40:50.408Z,8.4
2022-10-11T16:42:50.544Z,9.7
2022-10-11T16:44:50.494Z,9.7
2022-10-11T16:46:49.899Z,8.5
2022-10-11T16:48:50.020Z,8.1
2022-10-11T16:50:49.998Z,6.7
2022-10-11T16:52:50.048Z,6.2
2022-10-11T16:54:50.187Z,7.3
2022-10-11T16:56:49.887Z,7.3
2022-10-11T16:58:50.067Z,9.2
2022-10-11T17:00:50.116Z,8.1
2022-10-11T17:02:49.615Z,8.1
2022-10-11T17:04:50.212Z,8.2
2022-10-11T17:06:49.884Z,8.2
2022-10-11T17:08:49.810Z,11.5
2022-10-11T17:10:49.860Z,7.2
2022-10-11T17:12:50.221Z,8.1
2022-10-11T17:14:50.416Z,9.4
2022-10-11T17:16:49.931Z,9.4
2022-10-11T17:18:49.957Z,7.4
2022-10-11T17:20:50.027Z,6.7
2022-10-11T17:22:50.182Z,10.3
2022-10-11T17:24:50.260Z,10.3
2022-10-11T17:26:49.722Z,11.5
2022-10-11T17:28:49.871Z,10.5
2022-10-11T17:30:50.268Z,7.7
2022-10-11T17:32:50.376Z,10.8
2022-10-11T17:34:50.032Z,10.8
2022-10-11T17:36:50.556Z,12.1
2022-10-11T17:38:49.598Z,7.9
2022-10-11T17:40:50.001Z,7.9
2022-10-11T17:42:49.987Z,9.2
2022-10-11T17:44:50.006Z,9.2
2022-10-11T17:46:50.510Z,9.0
2022-10-11T17:48:50.540Z,7.8
2022-10-11T17:50:50.823Z,8.5
2022-10-11T17:52:50.171Z,8.5
2022-10-11T17:54:50.266Z,9.7
2022-10-11T17:56:49.687Z,10.2
2022-10-11T17:58:49.999Z,8.3
2022-10-11T18:00:50.201Z,8.3
2022-10-11T18:02:49.580Z,9.0
2022-10-11T18:04:49.697Z,9.0
2022-10-11T18:06:50.100Z,10.4
2022-10-11T18:08:50.094Z,10.1
2022-10-11T18:10:50.338Z,9.7
2022-10-11T18:12:50.463Z,9.9
2022-10-11T18:14:50.508Z,9.9
2022-10-11T18:16:50.041Z,11.2
2022-10-11T18:18:50.028Z,9.5
2022-10-11T18:20:50.014Z,9.5
2022-10-11T18:22:50.130Z,8.2
2022-10-11T18:24:50.367Z,9.1
2022-10-11T18:26:49.723Z,8.4
2022-10-11T18:28:49.883Z,7.8
2022-10-11T18:30:50.473Z,9.2
2022-10-11T18:32:50.409Z,9.2
2022-10-11T18:34:49.950Z,8.9
2022-10-11T18:36:50.230Z,10.9
2022-10-11T18:38:50.167Z,11.7
2022-10-11T18:40:50.236Z,11.6
2022-10-11T18:42:50.480Z,11.6
2022-10-11T18:44:50.546Z,10.9
2022-10-11T18:46:50.018Z,11.1
2022-10-11T18:48:50.194Z,11.4
2022-10-11T18:50:50.273Z,9.7
2022-10-11T18:52:50.406Z,9.7
2022-10-11T18:54:50.336Z,11.9
2022-10-11T18:56:49.729Z,8.2
2022-10-11T18:58:50.160Z,10.3
2022-10-11T19:00:50.392Z,7.6
2022-10-11T19:02:49.923Z,7.6
2022-10-11T19:04:50.529Z,11.6
2022-10-11T19:06:49.953Z,9.3
2022-10-11T19:08:50.228Z,14.6
2022-10-11T19:10:50.350Z,7.6
2022-10-11T19:12:50.275Z,7.6
2022-10-11T19:14:50.445Z,11.3
2022-10-11T19:16:50.046Z,9.1
2022-10-11T19:18:50.230Z,10.8
2022-10-11T19:20:50.278Z,10.8
2022-10-11T19:22:50.364Z,8.6
2022-10-11T19:24:50.551Z,10.0
2022-10-11T19:26:50.377Z,8.8
2022-10-11T19:28:49.815Z,10.0
2022-10-11T19:30:50.338Z,10.0
2022-10-11T19:32:49.669Z,10.6
2022-10-11T19:34:50.387Z,11.4
2022-10-11T19:36:49.876Z,11.4
2022-10-11T19:38:50.269Z,9.4
2022-10-11T19:40:50.451Z,9.4
2022-10-11T19:42:50.316Z,13.0
2022-10-11T19:44:50.473Z,9.5
2022-10-11T19:46:52.261Z,9.5
2022-10-11T19:48:50.462Z,11.3
2022-10-11T19:50:49.813Z,9.9
2022-10-11T19:52:49.777Z,11.4
2022-10-11T19:54:49.808Z,11.5
2022-10-11T19:56:50.162Z,11.5
2022-10-11T19:58:50.401Z,10.5
2022-10-11T20:00:50.240Z,11.8
2022-10-11T20:02:49.831Z,14.7
2022-10-11T20:04:52.708Z,12.3
2022-10-11T20:06:50.089Z,12.8
2022-10-11T20:08:59.975Z,12.9
2022-10-11T20:10:49.570Z,12.9
2022-10-11T20:12:49.623Z,12.1
2022-10-11T20:14:50.516Z,10.3
2022-10-11T20:16:50.257Z,12.4
2022-10-11T20:18:50.535Z,12.4
2022-10-11T20:20:49.622Z,13.4
2022-10-11T20:22:49.717Z,9.9
2022-10-11T20:24:49.745Z,11.7
2022-10-11T20:26:50.234Z,11.8
2022-10-11T20:28:55.075Z,11.8
2022-10-11T20:30:50.400Z,15.0
2022-10-11T20:32:50.348Z,15.0
2022-10-11T20:34:49.970Z,11.0
2022-10-11T20:36:50.355Z,10.5
2022-10-11T20:38:50.356Z,10.5
2022-10-11T20:40:50.377Z,14.0
2022-10-11T20:42:50.516Z,15.2
2022-10-11T20:44:50.552Z,11.7
2022-10-11T20:46:50.131Z,11.7
2022-10-11T20:48:50.213Z,10.8
2022-10-11T20:50:50.297Z,14.7
2022-10-11T20:52:50.399Z,11.7
2022-10-11T20:54:50.419Z,13.7
2022-10-11T20:56:49.955Z,13.7
2022-10-11T20:58:50.053Z,11.1
2022-10-11T21:00:49.956Z,12.6
2022-10-11T21:02:50.006Z,12.2
2022-10-11T21:04:49.618Z,13.1
2022-10-11T21:06:49.963Z,13.1
2022-10-11T21:08:49.963Z,12.4
2022-10-11T21:10:50.090Z,12.0
2022-10-11T21:12:50.152Z,9.7
2022-10-11T21:14:50.307Z,9.8
2022-10-11T21:16:49.841Z,9.8
2022-10-11T21:18:49.707Z,9.8
2022-10-11T21:20:49.670Z,11.4
2022-10-11T21:22:49.758Z,12.2
2022-10-11T21:24:49.743Z,12.2
2022-10-11T21:26:50.364Z,13.0
2022-10-11T21:28:50.396Z,13.3
2022-10-11T21:30:49.716Z,11.7
2022-10-11T21:32:49.817Z,11.7
2022-10-11T21:34:49.716Z,13.7
2022-10-11T21:36:50.185Z,11.1
2022-10-11T21:38:50.490Z,12.3
2022-10-11T21:40:50.397Z,11.7
2022-10-11T21:42:50.301Z,10.6
2022-10-11T21:44:50.449Z,11.4
2022-10-11T21:47:06.392Z,11.4
2022-10-11T21:48:49.580Z,12.9
2022-10-11T21:50:49.673Z,14.1
2022-10-11T21:52:49.730Z,8.3
2022-10-11T21:54:49.916Z,8.3
2022-10-11T21:56:50.367Z,10.5
2022-10-11T21:58:50.184Z,10.9
2022-10-11T22:00:50.340Z,10.9
2022-10-11T22:02:50.404Z,9.8
2022-10-11T22:04:50.021Z,9.8
2022-10-11T22:06:50.461Z,11.3
2022-10-11T22:08:50.526Z,10.8
2022-10-11T22:10:49.579Z,10.8
2022-10-11T22:12:49.650Z,14.4
2022-10-11T22:14:49.959Z,14.4
2022-10-11T22:16:50.466Z,10.3
2022-10-11T22:18:49.539Z,11.1
2022-10-11T22:20:49.646Z,11.7
2022-10-11T22:22:49.663Z,11.4
2022-10-11T22:24:49.824Z,11.4
2022-10-11T22:26:50.338Z,9.5
2022-10-11T22:28:50.337Z,15.9
2022-10-11T22:30:50.020Z,12.8
2022-10-11T22:32:50.175Z,12.8
2022-10-11T22:34:49.795Z,10.4
2022-10-11T22:36:50.306Z,9.5
2022-10-11T22:38:50.282Z,12.1
2022-10-11T22:40:50.262Z,11.5
2022-10-11T22:42:50.256Z,11.5
2022-10-11T22:44:50.422Z,9.5
2022-10-11T22:46:49.681Z,11.5
2022-10-11T22:48:49.751Z,11.5
2022-10-11T22:50:49.774Z,9.7
2022-10-11T22:52:49.707Z,9.7
2022-10-11T22:54:49.933Z,10.2
2022-10-11T22:56:50.247Z,10.6
2022-10-11T22:58:50.448Z,11.8
2022-10-11T23:00:49.577Z,12.2
2022-10-11T23:02:49.671Z,12.2
2022-10-11T23:04:50.111Z,9.6
2022-10-11T23:06:50.338Z,10.9
2022-10-11T23:08:50.426Z,10.8
2022-10-11T23:10:50.507Z,11.7
2022-10-11T23:12:50.550Z,11.7
2022-10-11T23:14:49.662Z,12.7
2022-10-11T23:16:50.053Z,9.3
2022-10-11T23:18:50.162Z,12.4
2022-10-11T23:20:50.383Z,10.8
2022-10-11T23:22:50.247Z,10.8
2022-10-11T23:24:50.449Z,10.5
2022-10-11T23:26:50.106Z,12.2
2022-10-11T23:28:50.215Z,12.0
2022-10-11T23:30:49.595Z,12.0
2022-10-11T23:32:49.856Z,12.1
2022-10-11T23:34:50.565Z,9.5
2022-10-11T23:36:49.971Z,9.8
2022-10-11T23:38:50.102Z,11.2
2022-10-11T23:40:50.061Z,11.2
2022-10-11T23:42:50.236Z,11.2
2022-10-11T23:44:50.216Z,10.3
2022-10-11T23:46:49.791Z,10.3
2022-10-11T23:48:49.863Z,12.7
2022-10-11T23:50:49.912Z,12.7
2022-10-11T23:52:49.856Z,10.3
2022-10-11T23:54:50.147Z,11.2
2022-10-11T23:56:49.638Z,10.2
2022-10-11T23:58:49.608Z,11.7
